| time (UTC) | temp F | wind direction | speed knots | gust knots | rain 1hr in | rain 24hr in | rain mn in | humidity % | barometer mb |
| 20260503004503 | 56 | 18 | 0.0 | 0.9 | 0.01 | 0.13 | 0.05 | 87 | 1011.8 |
| 20260503003603 | 56 | 18 | 0.0 | 0.9 | 0.02 | 0.13 | 0.05 | 86 | 1011.6 |
| 20260503002703 | 56 | 353 | 0.9 | 2.6 | 0.05 | 0.13 | 0.05 | 86 | 1011.8 |
| 20260503001803 | 56 | 357 | 1.7 | 5.2 | 0.05 | 0.13 | 0.05 | 86 | 1011.8 |
| 20260503000903 | 56 | 5 | 1.7 | 3.5 | 0.05 | 0.13 | 0.05 | 86 | 1011.9 |
| 20260503000003 | 57 | 346 | 0.9 | 2.6 | 0.05 | 0.13 | 0.05 | 85 | 1012.4 |
| 20260502235403 | 57 | 300 | 0.9 | 2.6 | 0.05 | 0.13 | 0.05 | 84 | 1012.8 |
| 20260502234503 | 57 | 251 | 0.9 | 3.5 | 0.04 | 0.13 | 0.04 | 85 | 1013.0 |
| 20260502233603 | 57 | 258 | 1.7 | 4.3 | 0.02 | 0.11 | 0.02 | 86 | 1013.2 |
| 20260502232703 | 58 | 204 | 1.7 | 3.5 | 0.00 | 0.09 | 0.00 | 87 | 1013.6 |
| 20260502231803 | 58 | 255 | 0.0 | 1.7 | 0.00 | 0.09 | 0.00 | 87 | 1013.5 |
| 20260502231117 | 58 | 259 | 0.9 | 1.7 | 0.00 | 0.09 | 0.00 | 87 | 1013.5 |
| 20260502230003 | 57 | 229 | 0.9 | 1.7 | 0.00 | 0.09 | 0.00 | 88 | 1013.4 |
| 20260502225403 | 57 | 217 | 0.9 | 3.5 | 0.00 | 0.09 | 0.00 | 87 | 1013.7 |
| 20260502224503 | 56 | 187 | 0.9 | 1.7 | 0.00 | 0.09 | 0.00 | 87 | 1013.6 |
| 20260502223603 | 56 | 201 | 0.9 | 2.6 | 0.00 | 0.09 | 0.00 | 87 | 1013.5 |
| 20260502222918 | 56 | 191 | 1.7 | 5.2 | 0.00 | 0.09 | 0.00 | 87 | 1013.3 |
| 20260502222018 | 56 | 9 | 0.9 | 3.5 | 0.00 | 0.09 | 0.00 | 86 | 1013.3 |
| 20260502220903 | 56 | 7 | 0.0 | 0.9 | 0.00 | 0.09 | 0.00 | 86 | 1012.8 |
| 20260502220216 | 56 | 7 | 0.0 | 0.9 | 0.00 | 0.09 | 0.00 | 86 | 1012.8 |
| 20260502215403 | 56 | 7 | 0.0 | 0.9 | 0.01 | 0.09 | 0.09 | 86 | 1012.8 |
| 20260502214503 | 57 | 347 | 0.9 | 1.7 | 0.09 | 0.09 | 0.09 | 85 | 1012.9 |
| 20260502213603 | 57 | 298 | 0.9 | 1.7 | 0.09 | 0.09 | 0.09 | 84 | 1013.1 |
| 20260502212703 | 58 | 283 | 0.0 | 0.9 | 0.09 | 0.09 | 0.09 | 83 | 1013.2 |
| 20260502211803 | 58 | 283 | 0.0 | 0.9 | 0.09 | 0.09 | 0.09 | 81 | 1013.4 |
| 20260502210903 | 59 | 283 | 0.0 | 0.9 | 0.09 | 0.09 | 0.09 | 79 | 1013.8 |
| 20260502210003 | 60 | 270 | 0.9 | 3.5 | 0.09 | 0.09 | 0.09 | 75 | 1013.8 |
| 20260502205615 | 61 | 234 | 0.9 | 3.5 | 0.09 | 0.09 | 0.09 | 73 | 1014.0 |
| 20260502204503 | 61 | 71 | 0.0 | 0.9 | 0.00 | 0.00 | 0.00 | 69 | 1014.2 |
| 20260502203603 | 62 | 40 | 0.0 | 0.9 | 0.00 | 0.00 | 0.00 | 68 | 1013.9 |
| 20260502202918 | 62 | 14 | 0.9 | 2.6 | 0.00 | 0.00 | 0.00 | 67 | 1013.9 |
| 20260502202017 | 62 | 1 | 1.7 | 2.6 | 0.00 | 0.00 | 0.00 | 67 | 1013.6 |
| 20260502200903 | 63 | 360 | 0.9 | 1.7 | 0.00 | 0.00 | 0.00 | 67 | 1014.0 |
| 20260502200003 | 63 | 17 | 0.9 | 1.7 | 0.00 | 0.00 | 0.00 | 67 | 1014.1 |
| 20260502195403 | 63 | 13 | 0.9 | 1.7 | 0.00 | 0.00 | 0.00 | 67 | 1014.0 |
| 20260502194503 | 64 | 7 | 0.9 | 1.7 | 0.00 | 0.00 | 0.00 | 67 | 1013.9 |
| 20260502193603 | 64 | 12 | 0.9 | 1.7 | 0.00 | 0.00 | 0.00 | 67 | 1013.9 |
| 20260502192703 | 64 | 337 | 0.9 | 3.5 | 0.00 | 0.00 | 0.00 | 66 | 1013.9 |
| 20260502191803 | 65 | 356 | 1.7 | 2.6 | 0.00 | 0.00 | 0.00 | 66 | 1013.9 |
| 20260502190903 | 65 | 1 | 1.7 | 4.3 | 0.00 | 0.00 | 0.00 | 66 | 1013.9 |
| 20260502190219 | 65 | 7 | 1.7 | 4.3 | 0.00 | 0.00 | 0.00 | 65 | 1013.8 |
| 20260502185403 | 66 | 6 | 2.6 | 4.3 | 0.00 | 0.00 | 0.00 | 65 | 1013.7 |
| 20260502184503 | 66 | 1 | 2.6 | 6.1 | 0.00 | 0.00 | 0.00 | 64 | 1013.7 |
| 20260502183603 | 66 | 2 | 2.6 | 4.3 | 0.00 | 0.00 | 0.00 | 64 | 1013.8 |
| 20260502181803 | 68 | 6 | 2.6 | 5.2 | 0.00 | 0.00 | 0.00 | 63 | 1013.8 |
| 20260502181115 | 69 | 3 | 2.6 | 5.2 | 0.00 | 0.00 | 0.00 | 62 | 1013.9 |
| 20260502163603 | 72 | 213 | 3.5 | 5.2 | 0.00 | 0.00 | 0.00 | 59 | 1014.2 |
| 20260502162703 | 72 | 231 | 2.6 | 5.2 | 0.00 | 0.00 | 0.00 | 57 | 1014.3 |
| 20260502161803 | 73 | 230 | 2.6 | 6.1 | 0.00 | 0.00 | 0.00 | 59 | 1014.3 |
| 20260502160903 | 73 | 229 | 3.5 | 5.2 | 0.00 | 0.00 | 0.00 | 58 | 1014.4 |
| 20260502151803 | 74 | 244 | 2.6 | 4.3 | 0.00 | 0.00 | 0.00 | 55 | 1014.8 |
| 20260502150903 | 73 | 207 | 4.3 | 7.8 | 0.00 | 0.00 | 0.00 | 55 | 1014.9 |
| 20260502122703 | 74 | 198 | 7.0 | 12.2 | 0.00 | 0.00 | 0.00 | 54 | 1016.2 |
| 20260502121803 | 73 | 201 | 6.1 | 11.3 | 0.00 | 0.00 | 0.00 | 57 | 1016.3 |
| 20260502121117 | 72 | 219 | 7.0 | 13.9 | 0.00 | 0.00 | 0.00 | 55 | 1016.3 |
| 20260502115403 | 72 | 229 | 5.2 | 10.4 | 0.00 | 0.00 | 0.00 | 56 | 1016.5 |
| 20260502114503 | 72 | 220 | 7.0 | 12.2 | 0.00 | 0.00 | 0.00 | 56 | 1016.5 |
| 20260502113819 | 73 | 234 | 7.8 | 13.0 | 0.00 | 0.00 | 0.00 | 59 | 1016.6 |
| 20260502112703 | 73 | 224 | 7.0 | 13.0 | 0.00 | 0.00 | 0.00 | 54 | 1016.7 |
| 20260502111803 | 73 | 220 | 7.0 | 12.2 | 0.00 | 0.00 | 0.00 | 53 | 1016.6 |
| 20260502110903 | 73 | 201 | 5.2 | 11.3 | 0.00 | 0.00 | 0.00 | 56 | 1016.6 |
| 20260502110003 | 72 | 203 | 6.1 | 11.3 | 0.00 | 0.00 | 0.00 | 56 | 1016.8 |
| 20260502105616 | 72 | 203 | 7.0 | 12.2 | 0.00 | 0.00 | 0.00 | 55 | 1016.8 |
| 20260502104503 | 72 | 233 | 6.1 | 12.2 | 0.00 | 0.00 | 0.00 | 54 | 1017.0 |
| 20260502103603 | 72 | 204 | 5.2 | 11.3 | 0.00 | 0.00 | 0.00 | 56 | 1017.0 |
| 20260502102703 | 72 | 214 | 3.5 | 7.0 | 0.00 | 0.00 | 0.00 | 51 | 1017.1 |
| 20260502101803 | 72 | 177 | 0.9 | 4.3 | 0.00 | 0.00 | 0.00 | 48 | 1017.0 |
| 20260502100903 | 70 | 205 | 2.6 | 8.7 | 0.00 | 0.00 | 0.00 | 49 | 1017.2 |
| 20260502091116 | 66 | 200 | 2.6 | 7.0 | 0.00 | 0.00 | 0.00 | 54 | 1017.5 |
| 20260502071115 | 63 | 220 | 0.9 | 1.7 | 0.00 | 0.00 | 0.00 | 56 | 1017.7 |
| 20260502070219 | 61 | 219 | 0.9 | 2.6 | 0.00 | 0.00 | 0.00 | 60 | 1017.8 |
| 20260502065618 | 60 | 205 | 0.9 | 3.5 | 0.00 | 0.00 | 0.00 | 60 | 1017.9 |
| 20260502064503 | 58 | 191 | 1.7 | 5.2 | 0.00 | 0.00 | 0.00 | 62 | 1018.0 |
| 20260502063603 | 57 | 180 | 0.9 | 3.5 | 0.00 | 0.00 | 0.00 | 64 | 1017.9 |
| 20260502062703 | 55 | 194 | 0.9 | 2.6 | 0.00 | 0.00 | 0.00 | 66 | 1017.8 |
| 20260502061803 | 53 | 227 | 0.0 | 0.9 | 0.00 | 0.00 | 0.00 | 69 | 1017.7 |
| 20260502061119 | 52 | 221 | 0.0 | 0.9 | 0.00 | 0.00 | 0.00 | 70 | 1017.6 |
| 20260502060003 | 51 | 208 | 0.0 | 0.9 | 0.00 | 0.00 | 0.00 | 73 | 1017.6 |
| 20260502055403 | 50 | 228 | 0.0 | 0.9 | 0.00 | 0.00 | 0.00 | 75 | 1017.6 |
| 20260502054503 | 49 | 0 | 0.0 | 0.0 | 0.00 | 0.00 | 0.00 | 78 | 1018.6 |
| 20260502053817 | 48 | 0 | 0.0 | 0.0 | 0.00 | 0.00 | 0.00 | 78 | 1018.6 |
| 20260502052703 | 47 | 0 | 0.0 | 0.0 | 0.00 | 0.00 | 0.00 | 81 | 1018.7 |
| 20260502052015 | 46 | 0 | 0.0 | 0.0 | 0.00 | 0.00 | 0.00 | 82 | 1018.8 |
| 20260502050903 | 45 | 229 | 0.0 | 0.9 | 0.00 | 0.00 | 0.00 | 85 | 1018.9 |
| 20260502050003 | 43 | 229 | 0.0 | 0.9 | 0.00 | 0.00 | 0.00 | 84 | 1019.0 |
| 20260502045403 | 42 | 0 | 0.0 | 0.0 | 0.00 | 0.00 | 0.00 | 84 | 1018.9 |
| 20260502044503 | 42 | 0 | 0.0 | 0.0 | 0.00 | 0.00 | 0.00 | 83 | 1018.9 |
| 20260502043603 | 42 | 0 | 0.0 | 0.0 | 0.00 | 0.00 | 0.00 | 82 | 1018.9 |
| 20260502042703 | 42 | 229 | 0.0 | 0.9 | 0.00 | 0.00 | 0.00 | 83 | 1018.9 |
| 20260502041803 | 42 | 0 | 0.0 | 0.0 | 0.00 | 0.00 | 0.00 | 83 | 1018.9 |
| 20260502040903 | 42 | 0 | 0.0 | 0.0 | 0.00 | 0.00 | 0.00 | 82 | 1018.9 |
| 20260502040003 | 42 | 0 | 0.0 | 0.0 | 0.00 | 0.00 | 0.00 | 82 | 1019.0 |
| 20260502035403 | 42 | 0 | 0.0 | 0.0 | 0.00 | 0.00 | 0.00 | 82 | 1019.1 |
| 20260502034503 | 43 | 0 | 0.0 | 0.0 | 0.00 | 0.00 | 0.00 | 81 | 1019.2 |
| 20260502033603 | 43 | 229 | 0.0 | 0.0 | 0.00 | 0.00 | 0.00 | 82 | 1019.2 |
| 20260502032703 | 43 | 0 | 0.0 | 0.0 | 0.00 | 0.00 | 0.00 | 81 | 1019.2 |
| 20260502031803 | 43 | 229 | 0.0 | 0.9 | 0.00 | 0.00 | 0.00 | 82 | 1019.2 |
| 20260502030903 | 43 | 0 | 0.0 | 0.0 | 0.00 | 0.00 | 0.00 | 83 | 1019.3 |
| 20260502030003 | 43 | 0 | 0.0 | 0.0 | 0.00 | 0.00 | 0.00 | 82 | 1019.4 |
| 20260502025403 | 43 | 0 | 0.0 | 0.0 | 0.00 | 0.00 | 0.00 | 83 | 1019.4 |
| 20260502024716 | 43 | 229 | 0.0 | 0.9 | 0.00 | 0.00 | 0.00 | 83 | 1019.4 |
| 20260502023603 | 43 | 0 | 0.0 | 0.0 | 0.00 | 0.00 | 0.00 | 83 | 1019.4 |
| 20260502022703 | 43 | 0 | 0.0 | 0.0 | 0.00 | 0.00 | 0.00 | 82 | 1019.5 |
| 20260502021803 | 44 | 0 | 0.0 | 0.0 | 0.00 | 0.00 | 0.00 | 82 | 1019.6 |
| 20260502020903 | 43 | 0 | 0.0 | 0.0 | 0.00 | 0.00 | 0.00 | 82 | 1019.5 |
| 20260502020003 | 43 | 0 | 0.0 | 0.0 | 0.00 | 0.00 | 0.00 | 80 | 1019.7 |
| 20260502015403 | 43 | 0 | 0.0 | 0.0 | 0.00 | 0.00 | 0.00 | 80 | 1019.8 |
| 20260502014503 | 44 | 0 | 0.0 | 0.0 | 0.00 | 0.00 | 0.00 | 80 | 1019.8 |
| 20260502013604 | 44 | 0 | 0.0 | 0.0 | 0.00 | 0.00 | 0.00 | 81 | 1019.8 |
| 20260502012919 | 44 | 0 | 0.0 | 0.0 | 0.00 | 0.00 | 0.00 | 81 | 1019.8 |
| 20260502011803 | 44 | 0 | 0.0 | 0.0 | 0.00 | 0.00 | 0.00 | 81 | 1019.9 |
| 20260502010903 | 44 | 0 | 0.0 | 0.0 | 0.00 | 0.00 | 0.00 | 81 | 1020.0 |
| 20260502010003 | 44 | 0 | 0.0 | 0.0 | 0.00 | 0.00 | 0.00 | 80 | 1020.2 |
| 20260502005403 | 44 | 0 | 0.0 | 0.0 | 0.00 | 0.00 | 0.00 | 80 | 1020.3 |